Time;durP1;ratioP1;P1;durP2;ratioP2;P2;SDS_P1;SDS_P2;PMS_P1;PMS_P2;Temp;Humidity;BMP_temperature;BMP_pressure;BME280_temperature;BME280_humidity;BME280_pressure;Samples;Min_cycle;Max_cycle;Signal;HPM_P1;HPM_P2
2023/02/27 00:01:58;;;;;;;67.50;5.97;;;1.60;1.00;;;;;;4998156;28;20817;-87
2023/02/27 00:04:24;;;;;;;70.43;6.73;;;1.50;1.00;;;;;;4997599;28;20173;-87
2023/02/27 00:06:49;;;;;;;67.57;5.77;;;1.50;1.00;;;;;;4999279;28;20172;-87
2023/02/27 00:09:15;;;;;;;69.40;6.53;;;1.50;1.00;;;;;;4999585;28;20218;-87
2023/02/27 00:11:42;;;;;;;67.00;6.07;;;1.50;1.00;;;;;;4999240;28;20190;-87
2023/02/27 00:14:08;;;;;;;66.50;6.22;;;1.50;1.00;;;;;;4997957;28;20585;-87
2023/02/27 00:16:34;;;;;;;67.28;6.00;;;1.50;1.00;;;;;;4998775;28;20190;-87
2023/02/27 00:19:05;;;;;;;66.10;5.50;;;1.40;1.00;;;;;;4998670;28;20166;-86
2023/02/27 00:21:35;;;;;;;66.07;5.80;;;1.50;1.00;;;;;;4999432;28;20536;-87
2023/02/27 00:24:10;;;;;;;66.75;6.55;;;1.50;1.00;;;;;;4997782;28;20173;-86
2023/02/27 00:26:36;;;;;;;67.72;5.65;;;1.50;1.00;;;;;;4999277;28;20142;-86
2023/02/27 00:29:03;;;;;;;66.25;5.90;;;1.50;1.00;;;;;;4998987;28;20213;-86
2023/02/27 00:31:29;;;;;;;67.88;6.10;;;1.60;1.00;;;;;;4998258;28;20193;-86
2023/02/27 00:33:55;;;;;;;67.22;6.00;;;1.60;1.00;;;;;;4995585;28;20253;-85
2023/02/27 00:36:21;;;;;;;68.80;6.10;;;1.60;1.00;;;;;;4995136;28;20657;-86
2023/02/27 00:38:49;;;;;;;69.75;5.90;;;1.50;1.00;;;;;;4995078;28;20770;-85
2023/02/27 00:41:18;;;;;;;68.05;5.90;;;1.50;1.00;;;;;;4994883;28;20233;-84
2023/02/27 00:43:44;;;;;;;67.70;5.55;;;1.50;1.00;;;;;;4995750;28;20171;-85
2023/02/27 00:46:10;;;;;;;70.43;6.50;;;1.50;1.00;;;;;;4996022;28;20163;-84
2023/02/27 00:48:38;;;;;;;66.60;6.07;;;1.50;1.00;;;;;;4995030;28;20574;-84
2023/02/27 00:51:04;;;;;;;66.80;5.85;;;1.50;1.00;;;;;;4995615;28;20253;-85
2023/02/27 00:53:32;;;;;;;66.30;6.10;;;1.50;1.00;;;;;;4994387;28;20554;-84
2023/02/27 00:56:01;;;;;;;66.35;5.80;;;1.40;1.00;;;;;;4995246;28;20175;-84
2023/02/27 00:58:27;;;;;;;67.20;6.00;;;1.40;1.00;;;;;;4995160;28;20170;-84
2023/02/27 01:00:52;;;;;;;66.70;6.27;;;1.40;2.00;;;;;;4995259;28;20197;-85
2023/02/27 01:03:18;;;;;;;66.80;6.30;;;1.30;3.40;;;;;;4993867;28;20197;-85
2023/02/27 01:05:47;;;;;;;66.20;5.63;;;1.40;1.40;;;;;;4995243;28;20771;-85
2023/02/27 01:08:13;;;;;;;67.75;6.07;;;1.50;1.00;;;;;;4995365;28;20159;-85
2023/02/27 01:10:38;;;;;;;68.17;7.07;;;1.40;1.50;;;;;;4995402;28;20300;-85
2023/02/27 01:13:04;;;;;;;67.90;6.33;;;1.40;3.50;;;;;;4995488;28;20504;-84
2023/02/27 01:15:32;;;;;;;66.23;5.70;;;1.40;3.70;;;;;;4993828;28;20178;-86
2023/02/27 01:17:58;;;;;;;66.03;5.95;;;1.40;3.90;;;;;;4993886;28;20182;-85
2023/02/27 01:20:24;;;;;;;67.25;7.15;;;1.40;4.10;;;;;;4993861;28;20177;-84
2023/02/27 01:22:50;;;;;;;67.67;5.33;;;1.40;5.20;;;;;;4994903;28;20179;-84
2023/02/27 01:25:15;;;;;;;67.20;6.70;;;1.40;3.70;;;;;;4994733;28;20212;-86
2023/02/27 01:27:41;;;;;;;69.10;5.97;;;1.40;2.70;;;;;;4997709;28;20237;-87
2023/02/27 01:30:11;;;;;;;66.70;6.30;;;1.30;4.40;;;;;;4997692;28;20174;-87
2023/02/27 01:32:40;;;;;;;70.88;6.55;;;1.30;5.80;;;;;;4998818;28;20202;-86
2023/02/27 01:35:06;;;;;;;66.28;6.07;;;1.20;6.20;;;;;;4998031;28;20174;-86
2023/02/27 01:37:32;;;;;;;66.60;6.38;;;1.20;7.60;;;;;;4999185;28;20155;-86
2023/02/27 01:39:58;;;;;;;66.30;6.10;;;1.20;8.10;;;;;;4997676;28;20255;-86
2023/02/27 01:42:26;;;;;;;68.63;6.87;;;1.10;11.00;;;;;;4996758;28;20198;-85
2023/02/27 01:45:10;;;;;;;67.90;6.30;;;1.10;9.50;;;;;;5000991;28;20167;-87
2023/02/27 01:47:51;;;;;;;68.75;6.78;;;1.10;11.30;;;;;;5000478;28;20522;-86
2023/02/27 01:50:20;;;;;;;67.40;7.05;;;1.00;12.70;;;;;;5002371;28;20158;-86
2023/02/27 01:52:53;;;;;;;68.30;6.47;;;0.90;19.60;;;;;;5002500;28;20329;-86
2023/02/27 01:55:20;;;;;;;69.10;6.18;;;0.90;21.30;;;;;;5000840;28;20189;-86
2023/02/27 01:57:48;;;;;;;67.90;6.00;;;0.70;24.80;;;;;;5000982;28;20220;-86
2023/02/27 02:00:14;;;;;;;67.32;6.80;;;0.60;27.80;;;;;;5001142;28;20657;-86
2023/02/27 02:02:46;;;;;;;70.38;7.55;;;0.50;28.90;;;;;;5001910;28;20265;-86
2023/02/27 02:05:13;;;;;;;69.38;8.55;;;0.50;35.20;;;;;;5000365;28;20175;-86
2023/02/27 02:07:41;;;;;;;67.60;7.20;;;0.40;37.60;;;;;;5000752;28;20175;-86
2023/02/27 02:10:10;;;;;;;68.60;7.18;;;0.40;41.50;;;;;;5001448;28;20159;-86
2023/02/27 02:12:37;;;;;;;67.13;6.63;;;0.30;42.00;;;;;;5000997;28;20204;-86
2023/02/27 02:15:05;;;;;;;69.35;6.95;;;0.20;48.70;;;;;;5001759;28;20170;-85
2023/02/27 02:18:12;;;;;;;69.45;6.68;;;0.20;45.40;;;;;;5001955;28;20202;-86
2023/02/27 02:21:12;;;;;;;67.00;6.55;;;0.20;45.30;;;;;;5001941;28;20222;-86
2023/02/27 02:23:54;;;;;;;66.28;6.35;;;0.30;42.50;;;;;;4997861;28;20242;-85
2023/02/27 02:26:36;;;;;;;68.25;7.72;;;0.40;40.60;;;;;;4998271;28;20537;-84
2023/02/27 02:29:36;;;;;;;72.45;7.30;;;0.50;37.50;;;;;;4999170;28;20197;-84
2023/02/27 02:32:23;;;;;;;68.53;7.47;;;0.50;35.70;;;;;;4998227;28;20197;-86
2023/02/27 02:35:25;;;;;;;71.53;7.10;;;0.60;32.40;;;;;;4998027;28;20159;-86
2023/02/27 02:38:29;;;;;;;69.72;5.95;;;0.50;35.00;;;;;;4997570;28;20265;-86
2023/02/27 02:41:38;;;;;;;69.57;7.30;;;0.60;35.10;;;;;;4997219;28;20248;-85
2023/02/27 02:44:26;;;;;;;68.22;7.05;;;0.60;32.20;;;;;;4997514;28;20154;-86
2023/02/27 02:47:15;;;;;;;67.47;7.20;;;0.70;28.90;;;;;;4997421;28;20151;-86
2023/02/27 02:50:07;;;;;;;70.95;6.95;;;0.70;28.10;;;;;;4998881;28;20151;-86
2023/02/27 02:52:38;;;;;;;66.95;6.43;;;0.70;28.20;;;;;;4998427;28;20258;-85
2023/02/27 02:55:30;;;;;;;67.13;7.10;;;0.60;31.80;;;;;;4997031;28;20534;-86
2023/02/27 02:58:24;;;;;;;67.90;6.60;;;0.60;30.90;;;;;;4999299;28;20607;-84
2023/02/27 03:01:14;;;;;;;67.22;7.22;;;0.60;31.70;;;;;;4999205;28;20186;-85
2023/02/27 03:04:02;;;;;;;73.75;7.65;;;0.60;32.90;;;;;;5001013;28;20174;-86
2023/02/27 03:06:32;;;;;;;70.35;7.35;;;0.60;31.70;;;;;;4994478;28;20185;-86
2023/02/27 03:09:15;;;;;;;67.32;6.93;;;0.60;31.90;;;;;;5000103;28;20166;-86
2023/02/27 03:11:47;;;;;;;67.20;6.65;;;0.60;34.80;;;;;;4998632;28;20193;-87
2023/02/27 03:14:32;;;;;;;69.30;7.03;;;0.50;37.00;;;;;;4998636;28;20197;-85
2023/02/27 03:17:05;;;;;;;67.70;6.30;;;0.50;37.80;;;;;;4998679;28;20232;-86
2023/02/27 03:19:44;;;;;;;66.78;6.32;;;0.50;36.70;;;;;;4999597;28;20151;-86
2023/02/27 03:22:16;;;;;;;66.55;7.07;;;0.40;38.70;;;;;;4999417;28;20566;-86
2023/02/27 03:24:47;;;;;;;67.22;6.80;;;0.40;42.50;;;;;;4997858;28;20202;-86
2023/02/27 03:27:15;;;;;;;70.47;6.40;;;0.40;40.90;;;;;;4999062;28;20155;-85
2023/02/27 03:29:56;;;;;;;68.57;6.82;;;0.30;44.30;;;;;;4998467;28;20166;-86
2023/02/27 03:32:48;;;;;;;68.95;6.68;;;0.40;43.90;;;;;;4999845;28;20193;-86
2023/02/27 03:35:15;;;;;;;67.10;6.57;;;0.40;44.90;;;;;;4998959;28;20201;-86
2023/02/27 03:38:13;;;;;;;67.93;7.63;;;0.40;42.70;;;;;;4998532;28;20524;-86
2023/02/27 03:41:00;;;;;;;73.28;8.00;;;0.40;40.70;;;;;;4996935;28;20269;-86
2023/02/27 03:43:29;;;;;;;68.35;7.05;;;0.40;42.80;;;;;;4998794;28;20151;-85
2023/02/27 03:45:58;;;;;;;66.47;6.25;;;0.40;39.80;;;;;;4997541;28;20163;-86
2023/02/27 03:48:24;;;;;;;67.65;6.68;;;0.50;40.60;;;;;;4997747;28;20178;-85
2023/02/27 03:50:54;;;;;;;67.65;6.95;;;0.40;40.90;;;;;;4998704;28;20581;-86
2023/02/27 03:53:47;;;;;;;72.30;7.03;;;0.30;44.80;;;;;;4997548;28;20194;-87
2023/02/27 03:56:15;;;;;;;67.72;6.38;;;0.30;46.50;;;;;;4999070;28;20155;-86
2023/02/27 03:58:41;;;;;;;67.13;6.72;;;0.30;47.20;;;;;;4997678;28;20174;-85
2023/02/27 04:01:11;;;;;;;67.10;6.53;;;0.20;49.90;;;;;;4998356;28;20262;-85
2023/02/27 04:03:45;;;;;;;66.43;6.35;;;0.20;52.40;;;;;;4998478;28;20166;-86
2023/02/27 04:09:06;;;;;;;68.50;6.78;;;0.00;57.20;;;;;;4997933;28;20158;-86
2023/02/27 04:11:43;;;;;;;66.88;7.53;;;-0.10;64.30;;;;;;4996746;28;20197;-86
2023/02/27 04:14:33;;;;;;;67.05;7.05;;;-0.20;67.40;;;;;;4997941;28;20151;-86
2023/02/27 04:17:02;;;;;;;68.03;7.90;;;-0.30;72.00;;;;;;4997440;28;20174;-85
2023/02/27 04:19:51;;;;;;;70.45;9.18;;;-0.40;78.30;;;;;;4995650;28;20230;-85
2023/02/27 04:22:33;;;;;;;69.15;8.38;;;-0.50;82.90;;;;;;4997348;28;20232;-84
2023/02/27 04:25:04;;;;;;;67.25;8.30;;;-0.50;82.90;;;;;;4997195;28;20154;-85
2023/02/27 04:27:52;;;;;;;74.38;10.93;;;-0.60;80.70;;;;;;4997477;28;20174;-86
2023/02/27 04:30:36;;;;;;;69.22;10.57;;;-0.60;88.50;;;;;;4996386;28;20526;-86
2023/02/27 04:33:11;;;;;;;71.05;13.40;;;-0.80;90.00;;;;;;4997889;28;20701;-85
2023/02/27 04:35:39;;;;;;;72.28;16.15;;;-0.90;93.20;;;;;;4996512;28;20205;-85
2023/02/27 04:38:21;;;;;;;75.10;17.83;;;-0.90;95.10;;;;;;4998410;28;20642;-85
2023/02/27 04:41:04;;;;;;;71.55;18.45;;;-1.00;96.00;;;;;;4999539;28;20182;-84
2023/02/27 04:43:32;;;;;;;76.03;19.08;;;-1.00;97.90;;;;;;4998430;28;20634;-85
2023/02/27 04:46:00;;;;;;;72.45;22.75;;;-1.10;98.30;;;;;;4999167;28;20503;-85
2023/02/27 04:48:33;;;;;;;72.30;20.33;;;-1.10;99.20;;;;;;4998863;28;20190;-85
2023/02/27 04:51:19;;;;;;;72.63;21.90;;;-1.10;99.90;;;;;;4998488;28;20218;-86
2023/02/27 04:54:14;;;;;;;70.50;18.23;;;-1.10;99.90;;;;;;4999587;28;20155;-85
2023/02/27 04:56:52;;;;;;;73.15;18.60;;;-1.00;99.90;;;;;;4999807;28;20195;-85
2023/02/27 04:59:27;;;;;;;72.78;20.58;;;-1.10;99.60;;;;;;4999265;28;20171;-85
2023/02/27 05:01:58;;;;;;;73.75;20.88;;;-1.20;99.20;;;;;;4998850;28;20201;-86
2023/02/27 05:04:27;;;;;;;72.25;20.65;;;-1.20;99.90;;;;;;4997215;28;20189;-85
2023/02/27 05:06:54;;;;;;;73.07;22.75;;;-1.20;99.90;;;;;;4998485;28;20169;-85
2023/02/27 05:09:29;;;;;;;78.15;21.48;;;-1.30;99.50;;;;;;4998068;28;20163;-85
2023/02/27 05:12:04;;;;;;;71.63;19.67;;;-1.30;99.50;;;;;;4997368;28;20228;-85
2023/02/27 05:14:51;;;;;;;73.47;17.73;;;-1.40;99.90;;;;;;4997751;28;20637;-86
2023/02/27 05:17:51;;;;;;;74.00;17.65;;;-1.40;99.90;;;;;;4997185;28;20166;-85
2023/02/27 05:20:17;;;;;;;70.22;15.48;;;-1.50;99.90;;;;;;4987870;28;20273;-84
2023/02/27 05:23:03;;;;;;;73.15;19.05;;;-1.50;99.90;;;;;;4997438;28;20234;-85
2023/02/27 05:25:40;;;;;;;74.65;18.30;;;-1.50;99.90;;;;;;4998441;28;20155;-85
2023/02/27 05:28:11;;;;;;;72.55;17.85;;;-1.50;99.90;;;;;;5014979;22;20218;-84
2023/02/27 05:30:52;;;;;;;75.53;19.85;;;-1.50;99.90;;;;;;5006585;28;20174;-85
2023/02/27 05:33:26;;;;;;;71.78;17.73;;;-1.50;99.90;;;;;;5005840;28;20251;-85
2023/02/27 05:36:13;;;;;;;72.25;16.70;;;-1.50;99.90;;;;;;5006023;28;20159;-85
2023/02/27 05:38:50;;;;;;;73.68;16.23;;;-1.50;99.90;;;;;;5005725;28;20221;-85
2023/02/27 05:41:24;;;;;;;72.38;17.23;;;-1.40;99.90;;;;;;5005766;28;20178;-85
2023/02/27 05:44:09;;;;;;;71.55;17.63;;;-1.50;99.90;;;;;;5006915;28;20202;-85
2023/02/27 05:46:38;;;;;;;70.10;17.73;;;-1.50;99.90;;;;;;5006237;28;20151;-85
2023/02/27 05:49:37;;;;;;;71.45;18.75;;;-1.60;99.90;;;;;;5005114;28;20229;-84
2023/02/27 05:52:06;;;;;;;72.82;17.23;;;-1.60;99.90;;;;;;5002400;28;20265;-85
2023/02/27 05:54:36;;;;;;;75.38;17.45;;;-1.70;99.90;;;;;;5007049;28;20240;-85
2023/02/27 05:57:07;;;;;;;75.10;17.77;;;-1.70;99.90;;;;;;5006729;28;20155;-85
2023/02/27 05:59:55;;;;;;;71.90;18.55;;;-1.70;99.90;;;;;;5005956;28;20166;-85
2023/02/27 06:02:21;;;;;;;74.25;17.38;;;-1.70;99.90;;;;;;5007094;28;20230;-85
2023/02/27 06:04:46;;;;;;;73.23;14.80;;;-1.80;99.90;;;;;;5007005;28;20171;-85
2023/02/27 06:07:15;;;;;;;73.37;16.97;;;-1.80;99.90;;;;;;5007216;28;20194;-85
2023/02/27 06:09:46;;;;;;;74.18;16.15;;;-1.90;99.90;;;;;;5007227;28;20167;-85
2023/02/27 06:12:11;;;;;;;77.97;15.13;;;-1.90;99.90;;;;;;5007151;28;20195;-85
2023/02/27 06:14:37;;;;;;;70.70;17.43;;;-1.80;99.90;;;;;;5007537;28;20217;-85
2023/02/27 06:17:03;;;;;;;72.33;18.20;;;-1.80;99.90;;;;;;5007381;28;20406;-85
2023/02/27 06:19:29;;;;;;;74.72;15.43;;;-1.80;99.90;;;;;;5002472;28;20174;-84
2023/02/27 06:21:55;;;;;;;72.73;15.77;;;-1.70;99.90;;;;;;5002271;28;20268;-84
2023/02/27 06:24:20;;;;;;;71.60;16.53;;;-1.80;99.90;;;;;;5002712;28;20417;-83
2023/02/27 06:26:46;;;;;;;72.37;17.37;;;-1.80;99.90;;;;;;5003039;28;20163;-83
2023/02/27 06:29:12;;;;;;;72.80;17.53;;;-1.80;99.90;;;;;;5002596;28;20186;-83
2023/02/27 06:31:38;;;;;;;82.00;18.05;;;-1.80;99.90;;;;;;5003965;28;20196;-84
2023/02/27 06:34:04;;;;;;;72.93;15.20;;;-1.80;99.90;;;;;;5006175;28;20194;-84
2023/02/27 06:36:30;;;;;;;75.47;15.80;;;-1.90;99.90;;;;;;5006107;28;20413;-83
2023/02/27 06:38:56;;;;;;;71.65;14.30;;;-2.00;99.90;;;;;;5006280;28;20166;-84
2023/02/27 06:41:22;;;;;;;70.38;15.27;;;-1.90;99.90;;;;;;5006601;28;20202;-84
2023/02/27 06:43:48;;;;;;;74.65;13.90;;;-1.90;99.90;;;;;;5005920;28;20194;-84
2023/02/27 06:46:14;;;;;;;73.63;14.77;;;-2.00;99.90;;;;;;5006781;28;20225;-83
2023/02/27 06:48:40;;;;;;;73.20;12.80;;;-2.00;99.90;;;;;;5006198;28;20188;-85
2023/02/27 06:51:05;;;;;;;71.30;14.53;;;-2.00;99.90;;;;;;5006178;28;20171;-85
2023/02/27 06:53:32;;;;;;;87.40;16.83;;;-2.00;99.90;;;;;;5004301;28;20421;-83
2023/02/27 06:55:57;;;;;;;70.68;13.13;;;-2.00;99.90;;;;;;5004662;28;20421;-83
2023/02/27 06:58:24;;;;;;;69.70;13.63;;;-1.90;99.90;;;;;;5005603;28;20171;-83
2023/02/27 07:00:50;;;;;;;70.32;14.43;;;-1.80;99.90;;;;;;5004936;28;20200;-83
2023/02/27 07:03:15;;;;;;;77.00;14.77;;;-1.70;99.90;;;;;;5005696;28;20214;-84
2023/02/27 07:05:41;;;;;;;72.80;14.00;;;-1.70;99.90;;;;;;5005027;28;20331;-83
2023/02/27 07:08:08;;;;;;;71.97;16.67;;;-1.70;99.90;;;;;;5004082;28;20414;-84
2023/02/27 07:10:34;;;;;;;74.15;17.77;;;-1.60;99.90;;;;;;5003790;28;20464;-84
2023/02/27 07:12:59;;;;;;;70.07;14.73;;;-1.60;99.90;;;;;;5005104;28;20221;-84
2023/02/27 07:15:25;;;;;;;69.60;14.67;;;-1.60;99.90;;;;;;5005112;28;20260;-85
2023/02/27 07:17:53;;;;;;;70.67;14.00;;;-1.50;99.90;;;;;;5004890;28;20460;-84
2023/02/27 07:20:18;;;;;;;71.78;14.68;;;-1.50;99.90;;;;;;5005546;28;20169;-84
2023/02/27 07:22:44;;;;;;;73.97;15.53;;;-1.50;99.90;;;;;;5004882;28;20194;-84
2023/02/27 07:25:10;;;;;;;71.43;13.90;;;-1.30;99.90;;;;;;5005014;28;20954;-84
2023/02/27 07:27:36;;;;;;;75.33;14.90;;;-1.20;99.90;;;;;;5006294;28;20413;-85
2023/02/27 07:30:02;;;;;;;75.03;16.45;;;-1.20;99.90;;;;;;5005746;28;20629;-84
2023/02/27 07:32:28;;;;;;;72.55;16.65;;;-1.10;99.90;;;;;;5006301;28;20210;-84
2023/02/27 07:34:54;;;;;;;73.33;15.57;;;-1.10;99.90;;;;;;5006085;28;20190;-83
2023/02/27 07:37:19;;;;;;;73.90;14.33;;;-1.10;99.90;;;;;;5004833;28;20185;-83
2023/02/27 07:39:46;;;;;;;74.37;17.80;;;-1.00;99.90;;;;;;5006211;28;20159;-83
2023/02/27 07:42:11;;;;;;;77.40;16.20;;;-0.90;99.90;;;;;;5005926;28;20190;-84
2023/02/27 07:44:38;;;;;;;70.20;17.60;;;-0.80;99.90;;;;;;5006119;28;20222;-84
2023/02/27 07:47:04;;;;;;;73.93;16.65;;;-0.70;99.90;;;;;;5006674;28;20409;-84
2023/02/27 07:49:30;;;;;;;79.13;17.87;;;-0.50;99.90;;;;;;5007714;28;20158;-84
2023/02/27 07:51:55;;;;;;;71.37;16.83;;;-0.40;99.90;;;;;;5008816;28;20437;-83
2023/02/27 07:54:21;;;;;;;74.10;17.47;;;-0.30;99.90;;;;;;5007915;28;20174;-84
2023/02/27 07:56:47;;;;;;;74.50;18.17;;;-0.30;99.00;;;;;;5008943;28;20154;-84
2023/02/27 07:59:12;;;;;;;70.50;16.47;;;-0.20;96.50;;;;;;5009512;28;20194;-84
2023/02/27 08:01:38;;;;;;;74.10;15.87;;;0.00;92.60;;;;;;5011059;28;20465;-84
2023/02/27 08:04:04;;;;;;;76.00;17.73;;;0.00;91.30;;;;;;5010443;28;20166;-84
2023/02/27 08:06:30;;;;;;;71.33;14.53;;;0.10;84.20;;;;;;5010226;28;20202;-84
2023/02/27 08:08:56;;;;;;;70.40;11.30;;;0.20;78.40;;;;;;5011931;28;20402;-84
2023/02/27 08:11:22;;;;;;;69.27;8.43;;;0.30;76.30;;;;;;5011247;28;20440;-84
2023/02/27 08:13:48;;;;;;;66.73;7.80;;;0.30;73.30;;;;;;5011804;28;20425;-84
2023/02/27 08:16:14;;;;;;;72.90;8.13;;;0.40;63.90;;;;;;5009295;28;20444;-84
2023/02/27 08:18:40;;;;;;;72.07;7.67;;;0.50;56.20;;;;;;5011432;28;20190;-84
2023/02/27 08:21:06;;;;;;;69.77;8.20;;;0.50;53.70;;;;;;5012240;28;20746;-83
2023/02/27 08:23:33;;;;;;;67.37;10.20;;;0.60;42.40;;;;;;5009763;28;20170;-83
2023/02/27 08:26:00;;;;;;;68.38;7.40;;;0.70;29.80;;;;;;5008300;28;20421;-83
2023/02/27 08:28:26;;;;;;;73.70;15.73;;;0.70;28.00;;;;;;5007540;28;20241;-83
2023/02/27 08:30:53;;;;;;;67.15;6.57;;;0.90;17.70;;;;;;5009065;28;20171;-84
2023/02/27 08:33:20;;;;;;;67.47;6.47;;;0.90;20.80;;;;;;5008959;28;20690;-84
2023/02/27 08:35:49;;;;;;;67.82;5.75;;;1.00;21.50;;;;;;5007429;28;20173;-84
2023/02/27 08:38:15;;;;;;;68.43;6.85;;;1.10;21.70;;;;;;5009056;28;20197;-85
2023/02/27 08:40:40;;;;;;;68.93;6.60;;;1.10;10.90;;;;;;5008153;28;20170;-84
2023/02/27 08:43:06;;;;;;;66.73;5.70;;;1.20;13.50;;;;;;5008289;28;20593;-84
2023/02/27 08:45:32;;;;;;;66.80;6.30;;;1.20;4.10;;;;;;5008355;28;20163;-84
2023/02/27 08:47:58;;;;;;;68.53;6.23;;;1.20;1.00;;;;;;5006965;28;20398;-84
2023/02/27 08:50:23;;;;;;;68.87;6.47;;;1.20;1.00;;;;;;5007308;28;20167;-84
2023/02/27 08:52:49;;;;;;;67.10;6.17;;;1.30;1.00;;;;;;5007240;28;20210;-85
2023/02/27 08:55:15;;;;;;;65.10;5.77;;;1.30;1.00;;;;;;5008157;28;20226;-84
2023/02/27 08:57:41;;;;;;;65.80;5.97;;;1.40;1.00;;;;;;5008505;28;20171;-84
2023/02/27 09:00:07;;;;;;;66.43;6.10;;;1.40;1.00;;;;;;5007723;28;20413;-85
2023/02/27 09:02:33;;;;;;;65.70;5.55;;;1.40;1.00;;;;;;5008022;28;20214;-85
2023/02/27 09:05:00;;;;;;;65.90;5.82;;;1.40;1.00;;;;;;5008934;28;20539;-85
2023/02/27 09:07:25;;;;;;;66.75;6.47;;;1.40;1.00;;;;;;5007675;28;20230;-85
2023/02/27 09:09:51;;;;;;;65.90;5.97;;;1.50;1.00;;;;;;5008887;28;20170;-85
2023/02/27 09:12:17;;;;;;;66.43;5.80;;;1.60;1.00;;;;;;5008924;28;20254;-85
2023/02/27 09:14:42;;;;;;;67.50;5.17;;;1.60;1.00;;;;;;5008396;28;20409;-84
2023/02/27 09:17:08;;;;;;;66.00;5.60;;;1.50;1.00;;;;;;5008946;28;20174;-84
2023/02/27 09:19:35;;;;;;;66.17;6.20;;;1.50;1.00;;;;;;5008794;28;20598;-85
2023/02/27 09:22:00;;;;;;;67.88;5.32;;;1.70;1.00;;;;;;5007849;28;20202;-85
2023/02/27 09:24:26;;;;;;;65.93;5.37;;;1.80;1.00;;;;;;5008848;28;20185;-85
2023/02/27 09:26:52;;;;;;;64.80;5.37;;;1.90;1.00;;;;;;5007723;28;20930;-85
2023/02/27 09:29:18;;;;;;;65.77;5.90;;;1.90;1.00;;;;;;5006581;28;20186;-84
2023/02/27 09:31:44;;;;;;;67.00;5.53;;;1.90;1.00;;;;;;5008827;28;20457;-84
2023/02/27 09:34:09;;;;;;;66.13;5.50;;;1.90;1.00;;;;;;5008403;28;20170;-85
2023/02/27 09:36:35;;;;;;;65.10;5.30;;;2.00;1.00;;;;;;5007920;28;20471;-84
2023/02/27 09:39:01;;;;;;;67.20;5.53;;;2.00;1.00;;;;;;5007105;28;20178;-84
2023/02/27 09:41:49;;;;;;;68.03;6.47;;;2.10;1.00;;;;;;5006745;28;20213;-85
2023/02/27 09:44:43;;;;;;;65.88;5.65;;;2.20;1.00;;;;;;5007858;28;20512;-84
2023/02/27 09:47:30;;;;;;;69.68;6.40;;;2.20;1.00;;;;;;5009066;28;20186;-85
2023/02/27 09:50:17;;;;;;;65.97;5.45;;;2.20;1.00;;;;;;5007702;28;20226;-85
2023/02/27 09:52:46;;;;;;;67.72;6.28;;;2.30;1.00;;;;;;5010252;28;20253;-84
2023/02/27 09:55:17;;;;;;;68.47;5.70;;;2.40;1.00;;;;;;5009574;28;20174;-84
2023/02/27 09:58:03;;;;;;;65.00;4.45;;;2.50;1.00;;;;;;5011958;28;20297;-84
2023/02/27 10:00:44;;;;;;;66.25;5.60;;;2.60;1.00;;;;;;5010198;28;20173;-85
2023/02/27 10:03:19;;;;;;;65.65;5.38;;;2.70;1.00;;;;;;5009031;28;20182;-85
2023/02/27 10:06:13;;;;;;;69.40;5.32;;;2.80;1.00;;;;;;5013240;28;20165;-85
2023/02/27 10:09:09;;;;;;;67.78;5.68;;;2.90;1.00;;;;;;5008939;28;20210;-86
2023/02/27 10:11:41;;;;;;;70.88;5.43;;;3.00;1.00;;;;;;5014873;28;20193;-85
2023/02/27 10:14:37;;;;;;;66.78;4.68;;;3.10;1.00;;;;;;5014154;28;20170;-85
2023/02/27 10:17:10;;;;;;;65.65;6.28;;;3.20;1.00;;;;;;5008305;28;20527;-85
2023/02/27 10:19:37;;;;;;;67.13;5.20;;;3.40;1.00;;;;;;5013100;28;20173;-85
2023/02/27 10:22:12;;;;;;;65.90;5.22;;;3.50;1.00;;;;;;5014109;28;20267;-85
2023/02/27 10:24:50;;;;;;;70.53;5.70;;;3.70;1.00;;;;;;5014343;28;20174;-85
2023/02/27 10:27:19;;;;;;;67.50;5.00;;;3.90;1.00;;;;;;5013238;28;20159;-85
2023/02/27 10:29:45;;;;;;;67.20;5.40;;;4.10;1.00;;;;;;5012255;28;20218;-85
2023/02/27 10:32:31;;;;;;;65.55;4.55;;;4.30;1.00;;;;;;5013830;28;20182;-85
2023/02/27 10:35:37;;;;;;;66.22;4.70;;;4.40;1.00;;;;;;5013352;28;20665;-85
2023/02/27 10:38:39;;;;;;;67.15;4.82;;;4.60;1.00;;;;;;5013388;28;20171;-85
2023/02/27 10:41:09;;;;;;;67.53;4.57;;;4.50;1.00;;;;;;5011487;28;20202;-85
2023/02/27 10:43:35;;;;;;;68.60;5.45;;;4.60;1.00;;;;;;5013166;28;20161;-85
2023/02/27 10:46:09;;;;;;;66.50;4.70;;;4.70;1.00;;;;;;5011739;28;20170;-85
2023/02/27 10:48:35;;;;;;;66.22;5.00;;;4.80;1.00;;;;;;5011899;28;20163;-85
2023/02/27 10:51:26;;;;;;;66.20;4.97;;;4.90;1.00;;;;;;5012770;28;20178;-85
2023/02/27 10:54:17;;;;;;;64.80;4.97;;;5.00;1.00;;;;;;5012320;28;20218;-85
2023/02/27 10:56:57;;;;;;;67.47;5.00;;;5.10;1.00;;;;;;5013444;28;20218;-85
2023/02/27 10:59:32;;;;;;;68.93;4.90;;;5.20;1.00;;;;;;5011457;28;20225;-85
2023/02/27 11:02:03;;;;;;;66.97;5.10;;;5.00;1.00;;;;;;5010552;28;20201;-84
2023/02/27 11:04:37;;;;;;;65.28;5.15;;;5.00;1.00;;;;;;5012373;28;20205;-85
2023/02/27 11:07:13;;;;;;;65.47;4.80;;;4.90;1.00;;;;;;5011335;28;20170;-85
2023/02/27 11:09:39;;;;;;;65.45;4.70;;;5.10;1.00;;;;;;5014462;28;20138;-84
2023/02/27 11:12:17;;;;;;;68.37;4.63;;;5.30;1.00;;;;;;5013316;28;20217;-85
2023/02/27 11:14:54;;;;;;;69.90;5.07;;;5.50;1.00;;;;;;5012729;28;20466;-85
2023/02/27 11:17:33;;;;;;;65.07;3.92;;;5.20;1.00;;;;;;5012136;28;20162;-85
2023/02/27 11:20:01;;;;;;;66.85;4.60;;;5.50;1.00;;;;;;5011954;28;20174;-86
2023/02/27 11:22:29;;;;;;;65.78;5.03;;;5.80;1.00;;;;;;5010549;28;20202;-82
2023/02/27 11:25:22;;;;;;;66.65;4.00;;;5.90;1.00;;;;;;5010403;28;20225;-82
2023/02/27 11:27:51;;;;;;;64.13;4.32;;;6.10;1.00;;;;;;5081631;22;20149;-85
2023/02/27 11:30:26;;;;;;;64.57;3.90;;;5.70;1.00;;;;;;4979755;28;20187;-85
2023/02/27 11:33:09;;;;;;;63.53;4.10;;;5.60;1.00;;;;;;4979311;28;20214;-86
2023/02/27 11:35:39;;;;;;;64.57;4.35;;;5.70;1.00;;;;;;4978681;28;20627;-85
2023/02/27 11:38:43;;;;;;;;;;;;;;;;;;;;;
2023/02/27 11:41:09;;;;;;;65.30;5.40;;;5.90;1.00;;;;;;4978357;28;20295;-85
2023/02/27 11:43:54;;;;;;;65.15;6.10;;;6.20;1.00;;;;;;4979952;28;20238;-85
2023/02/27 11:46:25;;;;;;;64.85;5.68;;;6.20;1.00;;;;;;4979762;28;20167;-84
2023/02/27 11:49:31;;;;;;;64.97;5.20;;;6.20;1.00;;;;;;4980133;28;20175;-85
2023/02/27 11:52:18;;;;;;;65.18;5.93;;;6.30;1.00;;;;;;4954102;28;20194;-84
2023/02/27 11:58:21;;;;;;;66.47;6.13;;;6.30;1.00;;;;;;4973199;28;20243;-86
2023/02/27 12:01:23;;;;;;;65.47;5.55;;;6.40;1.00;;;;;;4981741;28;20182;-86
2023/02/27 12:04:08;;;;;;;68.25;5.05;;;6.60;1.00;;;;;;4981674;28;20221;-86
2023/02/27 12:06:55;;;;;;;65.20;5.38;;;6.50;1.00;;;;;;4980811;28;20234;-86
2023/02/27 12:10:01;;;;;;;66.28;4.85;;;6.70;1.00;;;;;;4980954;28;20167;-86
2023/02/27 12:12:57;;;;;;;64.97;4.68;;;6.40;1.00;;;;;;4948409;28;20197;-86
2023/02/27 12:15:52;;;;;;;68.80;5.13;;;6.40;1.00;;;;;;4974523;28;20592;-86
2023/02/27 12:18:33;;;;;;;66.93;6.72;;;6.30;1.00;;;;;;4981351;28;20165;-86
2023/02/27 12:21:30;;;;;;;67.15;6.40;;;6.10;1.00;;;;;;4980952;28;20251;-86
2023/02/27 12:24:29;;;;;;;64.63;5.68;;;5.90;1.00;;;;;;4980246;28;20173;-84
2023/02/27 12:27:33;;;;;;;65.20;5.75;;;5.90;1.00;;;;;;4981472;28;20531;-85
2023/02/27 12:30:20;;;;;;;66.72;5.13;;;6.20;1.00;;;;;;4982421;28;20250;-85
2023/02/27 12:36:25;;;;;;;64.57;4.38;;;6.40;1.00;;;;;;4977644;28;20210;-85
2023/02/27 12:39:03;;;;;;;66.32;4.50;;;6.60;1.00;;;;;;4980558;28;20507;-85
2023/02/27 12:42:03;;;;;;;65.38;4.70;;;6.80;1.00;;;;;;4981491;28;20214;-86
2023/02/27 12:45:12;;;;;;;65.63;4.28;;;6.90;1.00;;;;;;4979010;28;20168;-85
2023/02/27 12:48:14;;;;;;;65.38;4.30;;;6.80;1.00;;;;;;4981583;28;20194;-85
2023/02/27 12:50:59;;;;;;;;;;;;;;;;;;;;;
2023/02/27 12:53:34;;;;;;;67.75;4.65;;;6.90;1.00;;;;;;4980829;28;20266;-85
2023/02/27 12:56:28;;;;;;;65.13;4.32;;;6.90;1.00;;;;;;4978801;28;20714;-86
2023/02/27 12:59:38;;;;;;;66.82;4.50;;;6.90;1.00;;;;;;4967637;28;20179;-86
2023/02/27 13:02:28;;;;;;;63.90;3.50;;;6.80;1.00;;;;;;4957805;28;20215;-85
2023/02/27 13:05:05;;;;;;;64.95;4.43;;;6.80;1.00;;;;;;4980556;28;20172;-85
2023/02/27 13:07:47;;;;;;;65.70;4.40;;;6.90;1.00;;;;;;4978146;28;20183;-85
2023/02/27 13:10:47;;;;;;;64.65;3.95;;;6.90;1.00;;;;;;4979861;28;20258;-86
2023/02/27 13:13:33;;;;;;;64.60;4.20;;;6.90;1.00;;;;;;4978129;28;20222;-85
2023/02/27 13:16:32;;;;;;;63.95;4.03;;;6.90;1.00;;;;;;4980606;28;20144;-85
2023/02/27 13:20:04;;;;;;;64.68;4.00;;;6.90;1.00;;;;;;4979520;28;20163;-85
2023/02/27 13:23:01;;;;;;;65.18;4.65;;;6.80;1.00;;;;;;4977208;28;20598;-85
2023/02/27 13:25:32;;;;;;;66.32;4.55;;;6.70;1.00;;;;;;4958811;28;20182;-85
2023/02/27 13:28:06;;;;;;;64.80;4.05;;;6.60;1.00;;;;;;4980185;28;20163;-85
2023/02/27 13:30:39;;;;;;;65.43;4.25;;;6.60;1.00;;;;;;4980711;28;20151;-85
2023/02/27 13:33:43;;;;;;;67.45;3.92;;;6.60;1.00;;;;;;4979900;28;20235;-86
2023/02/27 13:36:39;;;;;;;67.70;4.80;;;6.60;1.00;;;;;;4950702;28;20181;-85
2023/02/27 13:39:40;;;;;;;64.75;4.75;;;6.60;1.00;;;;;;4979503;28;20163;-85